createdAt,value
2017-07-14T00:01:41.368Z,1011.76
2017-07-14T00:06:36.858Z,1011.64
2017-07-14T00:11:33.344Z,1011.55
2017-07-14T00:16:28.907Z,1011.56
2017-07-14T00:21:24.819Z,1011.53
2017-07-14T00:26:20.750Z,1011.48
2017-07-14T00:31:17.528Z,1011.32
2017-07-14T00:36:14.837Z,1011.45
2017-07-14T00:41:11.424Z,1011.36
2017-07-14T00:46:06.903Z,1011.36
2017-07-14T00:51:03.748Z,1011.31
2017-07-14T00:55:59.341Z,1011.32
2017-07-14T01:00:54.899Z,1011.22
2017-07-14T01:05:50.691Z,1011.19
2017-07-14T01:10:46.326Z,1011.06
2017-07-14T01:15:42.324Z,1011.03
2017-07-14T01:20:38.055Z,1010.98
2017-07-14T01:25:35.065Z,1010.93
2017-07-14T01:30:31.694Z,1010.89
2017-07-14T01:35:27.347Z,1010.89
2017-07-14T01:40:23.390Z,1010.89
2017-07-14T01:45:20.507Z,1010.85
2017-07-14T01:50:17.325Z,1010.74
2017-07-14T01:55:12.963Z,1010.69
2017-07-14T02:00:08.452Z,1010.59
2017-07-14T02:05:04.316Z,1010.63
2017-07-14T02:10:01.147Z,1010.68
2017-07-14T02:14:56.814Z,1010.62
2017-07-14T02:19:53.832Z,1010.64
2017-07-14T02:24:50.482Z,1010.54
2017-07-14T02:29:46.149Z,1010.52
2017-07-14T02:34:42.001Z,1010.39
2017-07-14T02:39:37.861Z,1010.47
2017-07-14T02:44:33.747Z,1010.36
2017-07-14T02:49:29.356Z,1010.37
2017-07-14T02:54:26.503Z,1010.35
2017-07-14T02:59:21.887Z,1010.37
2017-07-14T03:04:17.875Z,1010.30
2017-07-14T03:09:13.635Z,1010.27
2017-07-14T03:14:09.488Z,1010.22
2017-07-14T03:19:06.443Z,1010.29
2017-07-14T03:24:01.981Z,1010.25
2017-07-14T03:28:58.550Z,1010.31
2017-07-14T03:33:54.075Z,1010.27
2017-07-14T03:38:49.645Z,1010.19
2017-07-14T03:43:45.259Z,1010.20
2017-07-14T03:48:40.992Z,1010.23
2017-07-14T03:53:36.991Z,1010.33
2017-07-14T03:58:33.871Z,1010.31
2017-07-14T04:03:29.499Z,1010.25
2017-07-14T04:08:25.200Z,1010.31
2017-07-14T04:13:22.155Z,1010.22
2017-07-14T04:18:18.928Z,1010.27
2017-07-14T04:23:16.124Z,1010.19
2017-07-14T04:28:11.746Z,1010.23
2017-07-14T04:33:07.747Z,1010.22
2017-07-14T04:38:04.726Z,1010.18
2017-07-14T04:43:01.024Z,1010.18
2017-07-14T04:47:57.234Z,1010.21
2017-07-14T04:52:53.591Z,1010.16
2017-07-14T04:57:51.264Z,1010.20
2017-07-14T05:02:47.043Z,1010.02
2017-07-14T05:07:43.635Z,1010.03
2017-07-14T05:12:40.834Z,1010.05
2017-07-14T05:17:38.150Z,1010.02
2017-07-14T05:22:35.111Z,1010.08
2017-07-14T05:27:31.235Z,1009.99
2017-07-14T05:32:28.252Z,1010.00
2017-07-14T05:37:23.818Z,1009.91
2017-07-14T05:42:21.390Z,1009.96
2017-07-14T05:47:17.457Z,1009.85
2017-07-14T05:52:13.674Z,1009.85
2017-07-14T05:57:09.628Z,1009.86
2017-07-14T06:02:05.624Z,1009.75
2017-07-14T06:07:02.640Z,1009.76
2017-07-14T06:11:58.059Z,1009.78
2017-07-14T06:16:53.243Z,1009.83
2017-07-14T06:21:48.708Z,1009.72
2017-07-14T06:26:45.334Z,1009.70
2017-07-14T06:31:41.749Z,1009.81
2017-07-14T06:36:37.387Z,1009.73
2017-07-14T06:41:33.154Z,1009.73
2017-07-14T06:46:29.176Z,1009.65
2017-07-14T06:51:25.438Z,1009.61
2017-07-14T06:56:21.010Z,1009.63
2017-07-14T07:01:18.450Z,1009.60
2017-07-14T07:06:14.069Z,1009.61
2017-07-14T07:11:10.331Z,1009.66
2017-07-14T07:16:06.248Z,1009.51
2017-07-14T07:21:02.316Z,1009.62
2017-07-14T07:25:58.818Z,1009.64
2017-07-14T07:30:54.753Z,1009.59
2017-07-14T07:35:50.842Z,1009.63
2017-07-14T07:40:46.775Z,1009.60
2017-07-14T07:45:42.768Z,1009.55
2017-07-14T07:50:38.935Z,1009.65
2017-07-14T07:55:35.372Z,1009.66
2017-07-14T08:00:33.508Z,1009.77
2017-07-14T08:05:33.257Z,1009.66
2017-07-14T08:10:28.733Z,1009.61
2017-07-14T08:15:24.532Z,1009.63
2017-07-14T08:20:23.695Z,1009.62
2017-07-14T08:25:19.514Z,1009.56
2017-07-14T08:30:15.419Z,1009.46
2017-07-14T08:35:11.797Z,1009.37
2017-07-14T08:40:06.793Z,1009.57
2017-07-14T08:45:06.073Z,1009.51
2017-07-14T08:50:01.594Z,1009.42
2017-07-14T08:54:59.281Z,1009.35
2017-07-14T08:59:57.057Z,1009.51
2017-07-14T09:04:54.891Z,1009.39
2017-07-14T09:09:51.314Z,1009.22
2017-07-14T09:19:47.604Z,1009.45
2017-07-14T09:24:46.712Z,1009.48
2017-07-14T09:29:43.820Z,1009.33
2017-07-14T09:34:40.189Z,1009.28
2017-07-14T09:39:37.321Z,1009.33
2017-07-14T09:44:33.309Z,1009.25
2017-07-14T09:49:28.161Z,1009.22
2017-07-14T09:54:23.465Z,1009.23
2017-07-14T09:59:19.210Z,1009.43
2017-07-14T10:04:16.848Z,1009.47
2017-07-14T10:09:14.127Z,1009.37
2017-07-14T10:14:11.154Z,1009.47
2017-07-14T10:19:10.094Z,1009.28
2017-07-14T10:24:04.538Z,1009.31
2017-07-14T10:28:59.014Z,1009.06
2017-07-14T10:33:53.550Z,1009.20
2017-07-14T10:38:48.633Z,1009.08
2017-07-14T10:43:45.056Z,1009.10
2017-07-14T10:48:41.320Z,1009.14
2017-07-14T10:53:37.628Z,1009.09
2017-07-14T10:58:34.893Z,1009.29
2017-07-14T11:03:31.380Z,1009.14
2017-07-14T11:08:26.733Z,1009.10
2017-07-14T11:13:21.673Z,1009.06
2017-07-14T11:18:17.484Z,1009.12
2017-07-14T11:23:13.500Z,1009.02
2017-07-14T11:28:09.252Z,1009.07
2017-07-14T11:33:04.405Z,1009.08
2017-07-14T11:38:00.937Z,1009.08
2017-07-14T11:42:57.677Z,1009.05
2017-07-14T11:47:52.998Z,1009.08
2017-07-14T11:52:48.713Z,1009.04
2017-07-14T11:57:44.466Z,1009.02
2017-07-14T12:02:40.921Z,1009.05
2017-07-14T12:07:36.661Z,1009.03
2017-07-14T12:12:32.524Z,1009.07
2017-07-14T12:17:28.627Z,1009.11
2017-07-14T12:22:24.687Z,1009.06
2017-07-14T12:27:20.919Z,1009.06
2017-07-14T12:32:17.889Z,1009.04
2017-07-14T12:37:13.215Z,1009.13
2017-07-14T12:42:08.634Z,1009.10
2017-07-14T12:47:05.140Z,1009.02
2017-07-14T12:52:01.649Z,1008.95
2017-07-14T12:56:57.372Z,1008.99
2017-07-14T13:01:53.389Z,1008.98
2017-07-14T13:06:50.838Z,1008.99
2017-07-14T13:11:47.115Z,1008.94
2017-07-14T13:16:44.700Z,1008.89
2017-07-14T13:21:40.255Z,1008.78
2017-07-14T13:26:38.517Z,1008.85
2017-07-14T13:31:35.180Z,1008.83
2017-07-14T13:36:31.647Z,1008.73
2017-07-14T13:41:27.173Z,1008.77
2017-07-14T13:46:22.725Z,1008.84
2017-07-14T13:51:18.031Z,1008.91
2017-07-14T13:56:15.027Z,1008.86
2017-07-14T14:01:10.486Z,1008.92
2017-07-14T14:06:08.019Z,1008.98
2017-07-14T14:11:04.113Z,1009.08
2017-07-14T14:15:59.871Z,1008.99
2017-07-14T14:20:57.120Z,1009.17
2017-07-14T14:25:53.652Z,1009.25
2017-07-14T14:30:50.644Z,1009.22
2017-07-14T14:35:47.180Z,1009.08
2017-07-14T14:40:42.592Z,1009.15
2017-07-14T14:45:39.734Z,1009.22
2017-07-14T14:50:35.060Z,1009.17
2017-07-14T14:55:32.267Z,1009.10
2017-07-14T15:00:28.554Z,1009.11
2017-07-14T15:05:24.097Z,1009.18
2017-07-14T15:10:20.928Z,1009.24
2017-07-14T15:15:16.345Z,1009.25
2017-07-14T15:20:12.479Z,1009.30
2017-07-14T15:25:08.337Z,1009.20
2017-07-14T15:30:03.971Z,1009.17
2017-07-14T15:34:59.798Z,1009.20
2017-07-14T15:39:56.554Z,1009.17
2017-07-14T15:44:52.050Z,1009.14
2017-07-14T15:49:47.741Z,1009.36
2017-07-14T15:54:44.432Z,1009.38
2017-07-14T15:59:41.474Z,1009.21
2017-07-14T16:04:37.151Z,1009.33
2017-07-14T16:09:33.234Z,1009.20
2017-07-14T16:14:30.239Z,1009.11
2017-07-14T16:19:25.993Z,1009.16
2017-07-14T16:24:23.020Z,1009.21
2017-07-14T16:29:18.526Z,1009.14
2017-07-14T16:34:15.695Z,1009.26
2017-07-14T16:39:11.010Z,1009.26
2017-07-14T16:44:08.481Z,1009.24
2017-07-14T16:49:04.052Z,1009.15
2017-07-14T16:53:59.706Z,1009.22
2017-07-14T16:58:56.503Z,1009.26
2017-07-14T17:03:52.328Z,1009.29
2017-07-14T17:08:48.453Z,1009.24
2017-07-14T17:13:45.002Z,1009.18
2017-07-14T17:18:41.847Z,1009.18
2017-07-14T17:23:38.194Z,1009.31
2017-07-14T17:28:33.716Z,1009.35
2017-07-14T17:33:29.578Z,1009.43
2017-07-14T17:38:25.251Z,1009.40
2017-07-14T17:43:21.016Z,1009.44
2017-07-14T17:48:18.955Z,1009.54
2017-07-14T17:53:15.365Z,1009.50
2017-07-14T17:58:12.862Z,1009.70
2017-07-14T18:03:08.474Z,1009.69
2017-07-14T18:08:04.485Z,1009.72
2017-07-14T18:13:00.477Z,1009.69
2017-07-14T18:17:56.513Z,1009.81
2017-07-14T18:22:53.368Z,1009.84
2017-07-14T18:27:50.925Z,1009.93
2017-07-14T18:32:47.291Z,1009.97
2017-07-14T18:37:42.432Z,1010.05
2017-07-14T18:42:39.791Z,1009.99
2017-07-14T18:47:36.944Z,1010.09
2017-07-14T18:52:32.532Z,1010.09
2017-07-14T18:57:29.001Z,1010.02
2017-07-14T19:02:26.537Z,1010.11
2017-07-14T19:07:24.468Z,1010.13
2017-07-14T19:12:19.714Z,1010.23
2017-07-14T19:17:17.177Z,1010.26
2017-07-14T19:22:13.589Z,1010.20
2017-07-14T19:27:10.352Z,1010.27
2017-07-14T19:32:08.305Z,1010.30
2017-07-14T19:37:04.612Z,1010.31
2017-07-14T19:42:01.324Z,1010.29
2017-07-14T19:46:56.617Z,1010.41
2017-07-14T19:51:53.645Z,1010.43
2017-07-14T19:56:50.545Z,1010.55
2017-07-14T20:01:47.077Z,1010.64
2017-07-14T20:06:42.692Z,1010.61
2017-07-14T20:11:39.559Z,1010.78
2017-07-14T20:16:36.210Z,1010.80
2017-07-14T20:21:31.856Z,1010.85
2017-07-14T20:26:27.566Z,1010.95
2017-07-14T20:31:23.918Z,1011.07
2017-07-14T20:36:19.787Z,1011.10
2017-07-14T20:41:17.634Z,1011.26
2017-07-14T20:46:13.179Z,1011.21
2017-07-14T20:51:09.173Z,1011.30
2017-07-14T20:56:05.878Z,1011.40
2017-07-14T21:01:01.269Z,1011.36
2017-07-14T21:05:56.877Z,1011.28
2017-07-14T21:10:52.705Z,1011.29
2017-07-14T21:15:49.037Z,1011.42
2017-07-14T21:20:44.958Z,1011.37
2017-07-14T21:25:41.814Z,1011.45
2017-07-14T21:30:37.361Z,1011.44
2017-07-14T21:35:33.056Z,1011.47
2017-07-14T21:40:29.947Z,1011.48
2017-07-14T21:45:25.308Z,1011.61
2017-07-14T21:50:21.194Z,1011.57
2017-07-14T21:55:17.112Z,1011.58
2017-07-14T22:00:13.149Z,1011.65
2017-07-14T22:05:09.134Z,1011.67
2017-07-14T22:10:05.899Z,1011.59
2017-07-14T22:15:02.874Z,1011.67
2017-07-14T22:19:58.363Z,1011.70
2017-07-14T22:24:54.496Z,1011.80
2017-07-14T22:29:50.284Z,1011.81
2017-07-14T22:34:46.020Z,1011.76
2017-07-14T22:39:42.126Z,1011.84
2017-07-14T22:44:38.911Z,1011.90
2017-07-14T22:49:35.442Z,1011.81
2017-07-14T22:54:30.905Z,1011.76
2017-07-14T22:59:26.699Z,1011.75
2017-07-14T23:04:22.642Z,1011.69
2017-07-14T23:09:18.290Z,1011.74
2017-07-14T23:14:14.758Z,1011.78
2017-07-14T23:19:10.867Z,1011.77
2017-07-14T23:24:06.552Z,1011.80
2017-07-14T23:29:02.953Z,1011.79
2017-07-14T23:33:58.965Z,1011.88
2017-07-14T23:38:54.732Z,1011.77
2017-07-14T23:43:51.264Z,1011.92
2017-07-14T23:48:47.347Z,1011.98
2017-07-14T23:53:43.328Z,1011.83
2017-07-14T23:58:39.521Z,1011.99
